sensor_id;sensor_type;location;lat;lon;timestamp;P1;durP1;ratioP1;P2;durP2;ratioP2
8927;SDS011;4499;48.304;11.902;2023-06-05T00:02:05;6.90;;;6.10;;
8927;SDS011;4499;48.304;11.902;2023-06-05T00:04:33;7.90;;;6.27;;
8927;SDS011;4499;48.304;11.902;2023-06-05T00:07:02;7.50;;;6.07;;
8927;SDS011;4499;48.304;11.902;2023-06-05T00:09:30;7.40;;;5.93;;
8927;SDS011;4499;48.304;11.902;2023-06-05T00:11:58;8.03;;;5.77;;
8927;SDS011;4499;48.304;11.902;2023-06-05T00:14:28;6.27;;;5.50;;
8927;SDS011;4499;48.304;11.902;2023-06-05T00:16:56;8.80;;;6.23;;
8927;SDS011;4499;48.304;11.902;2023-06-05T00:19:24;7.90;;;6.00;;
8927;SDS011;4499;48.304;11.902;2023-06-05T00:21:53;6.87;;;5.80;;
8927;SDS011;4499;48.304;11.902;2023-06-05T00:24:21;9.23;;;6.07;;
8927;SDS011;4499;48.304;11.902;2023-06-05T00:26:49;8.10;;;6.00;;
8927;SDS011;4499;48.304;11.902;2023-06-05T00:29:17;6.83;;;6.13;;
8927;SDS011;4499;48.304;11.902;2023-06-05T00:31:47;8.70;;;6.67;;
8927;SDS011;4499;48.304;11.902;2023-06-05T00:34:15;6.47;;;5.70;;
8927;SDS011;4499;48.304;11.902;2023-06-05T00:36:43;8.67;;;5.97;;
8927;SDS011;4499;48.304;11.902;2023-06-05T00:39:11;8.77;;;6.33;;
8927;SDS011;4499;48.304;11.902;2023-06-05T00:41:39;9.93;;;6.63;;
8927;SDS011;4499;48.304;11.902;2023-06-05T00:44:08;9.40;;;6.73;;
8927;SDS011;4499;48.304;11.902;2023-06-05T00:46:37;7.97;;;5.90;;
8927;SDS011;4499;48.304;11.902;2023-06-05T00:49:07;8.10;;;5.90;;
8927;SDS011;4499;48.304;11.902;2023-06-05T00:51:36;8.53;;;6.43;;
8927;SDS011;4499;48.304;11.902;2023-06-05T00:54:05;8.83;;;6.40;;
8927;SDS011;4499;48.304;11.902;2023-06-05T00:56:35;10.60;;;6.60;;
8927;SDS011;4499;48.304;11.902;2023-06-05T00:59:03;7.70;;;6.60;;
8927;SDS011;4499;48.304;11.902;2023-06-05T01:01:32;7.50;;;6.20;;
8927;SDS011;4499;48.304;11.902;2023-06-05T01:04:00;7.20;;;6.50;;
8927;SDS011;4499;48.304;11.902;2023-06-05T01:06:30;9.43;;;6.60;;
8927;SDS011;4499;48.304;11.902;2023-06-05T01:09:00;8.87;;;6.70;;
8927;SDS011;4499;48.304;11.902;2023-06-05T01:11:32;8.17;;;6.13;;
8927;SDS011;4499;48.304;11.902;2023-06-05T01:14:06;10.53;;;6.37;;
8927;SDS011;4499;48.304;11.902;2023-06-05T01:16:43;8.43;;;6.20;;
8927;SDS011;4499;48.304;11.902;2023-06-05T01:19:15;11.03;;;6.57;;
8927;SDS011;4499;48.304;11.902;2023-06-05T01:21:46;7.07;;;6.07;;
8927;SDS011;4499;48.304;11.902;2023-06-05T01:24:16;8.43;;;6.83;;
8927;SDS011;4499;48.304;11.902;2023-06-05T01:26:51;8.23;;;6.20;;
8927;SDS011;4499;48.304;11.902;2023-06-05T01:29:32;9.37;;;6.37;;
8927;SDS011;4499;48.304;11.902;2023-06-05T01:32:05;9.80;;;7.23;;
8927;SDS011;4499;48.304;11.902;2023-06-05T01:34:43;11.20;;;6.90;;
8927;SDS011;4499;48.304;11.902;2023-06-05T01:37:15;8.47;;;6.40;;
8927;SDS011;4499;48.304;11.902;2023-06-05T01:39:47;9.57;;;6.63;;
8927;SDS011;4499;48.304;11.902;2023-06-05T01:42:16;9.27;;;6.80;;
8927;SDS011;4499;48.304;11.902;2023-06-05T01:44:44;7.27;;;6.53;;
8927;SDS011;4499;48.304;11.902;2023-06-05T01:47:13;8.93;;;6.20;;
8927;SDS011;4499;48.304;11.902;2023-06-05T01:49:42;9.00;;;6.73;;
8927;SDS011;4499;48.304;11.902;2023-06-05T01:52:11;10.07;;;6.13;;
8927;SDS011;4499;48.304;11.902;2023-06-05T01:54:39;7.83;;;6.57;;
8927;SDS011;4499;48.304;11.902;2023-06-05T01:57:10;7.30;;;6.23;;
8927;SDS011;4499;48.304;11.902;2023-06-05T01:59:38;10.30;;;6.90;;
8927;SDS011;4499;48.304;11.902;2023-06-05T02:02:06;7.47;;;6.13;;
8927;SDS011;4499;48.304;11.902;2023-06-05T02:04:34;7.83;;;6.17;;
8927;SDS011;4499;48.304;11.902;2023-06-05T02:07:03;7.70;;;6.50;;
8927;SDS011;4499;48.304;11.902;2023-06-05T02:09:32;13.73;;;7.20;;
8927;SDS011;4499;48.304;11.902;2023-06-05T02:12:00;9.37;;;7.23;;
8927;SDS011;4499;48.304;11.902;2023-06-05T02:14:31;8.20;;;6.73;;
8927;SDS011;4499;48.304;11.902;2023-06-05T02:17:01;8.40;;;6.70;;
8927;SDS011;4499;48.304;11.902;2023-06-05T02:19:31;7.73;;;6.93;;
8927;SDS011;4499;48.304;11.902;2023-06-05T02:21:59;9.70;;;6.57;;
8927;SDS011;4499;48.304;11.902;2023-06-05T02:24:28;9.90;;;6.60;;
8927;SDS011;4499;48.304;11.902;2023-06-05T02:26:56;7.70;;;6.80;;
8927;SDS011;4499;48.304;11.902;2023-06-05T02:29:25;8.53;;;6.93;;
8927;SDS011;4499;48.304;11.902;2023-06-05T02:31:55;8.80;;;6.80;;
8927;SDS011;4499;48.304;11.902;2023-06-05T02:34:23;10.60;;;7.37;;
8927;SDS011;4499;48.304;11.902;2023-06-05T02:36:52;8.83;;;6.90;;
8927;SDS011;4499;48.304;11.902;2023-06-05T02:39:20;10.20;;;7.10;;
8927;SDS011;4499;48.304;11.902;2023-06-05T02:41:48;8.40;;;6.90;;
8927;SDS011;4499;48.304;11.902;2023-06-05T02:44:17;7.80;;;6.77;;
8927;SDS011;4499;48.304;11.902;2023-06-05T02:46:45;8.37;;;7.03;;
8927;SDS011;4499;48.304;11.902;2023-06-05T02:49:15;8.10;;;7.30;;
8927;SDS011;4499;48.304;11.902;2023-06-05T02:51:43;7.67;;;6.83;;
8927;SDS011;4499;48.304;11.902;2023-06-05T02:54:11;10.47;;;6.90;;
8927;SDS011;4499;48.304;11.902;2023-06-05T02:56:40;8.43;;;7.10;;
8927;SDS011;4499;48.304;11.902;2023-06-05T02:59:10;8.97;;;7.83;;
8927;SDS011;4499;48.304;11.902;2023-06-05T03:01:38;9.43;;;6.63;;
8927;SDS011;4499;48.304;11.902;2023-06-05T03:04:09;9.83;;;7.47;;
8927;SDS011;4499;48.304;11.902;2023-06-05T03:06:40;10.10;;;7.93;;
8927;SDS011;4499;48.304;11.902;2023-06-05T03:09:10;8.47;;;7.57;;
8927;SDS011;4499;48.304;11.902;2023-06-05T03:11:38;10.63;;;7.70;;
8927;SDS011;4499;48.304;11.902;2023-06-05T03:14:06;10.93;;;8.03;;
8927;SDS011;4499;48.304;11.902;2023-06-05T03:16:34;8.83;;;7.60;;
8927;SDS011;4499;48.304;11.902;2023-06-05T03:19:07;10.53;;;8.00;;
8927;SDS011;4499;48.304;11.902;2023-06-05T03:21:36;8.40;;;7.30;;
8927;SDS011;4499;48.304;11.902;2023-06-05T03:24:08;9.73;;;7.93;;
8927;SDS011;4499;48.304;11.902;2023-06-05T03:26:39;11.27;;;8.40;;
8927;SDS011;4499;48.304;11.902;2023-06-05T03:29:07;9.43;;;7.90;;
8927;SDS011;4499;48.304;11.902;2023-06-05T03:31:37;9.97;;;7.97;;
8927;SDS011;4499;48.304;11.902;2023-06-05T03:34:05;10.27;;;8.50;;
8927;SDS011;4499;48.304;11.902;2023-06-05T03:36:34;13.40;;;8.83;;
8927;SDS011;4499;48.304;11.902;2023-06-05T03:39:04;9.70;;;8.23;;
8927;SDS011;4499;48.304;11.902;2023-06-05T03:41:33;13.03;;;7.90;;
8927;SDS011;4499;48.304;11.902;2023-06-05T03:44:01;9.83;;;8.30;;
8927;SDS011;4499;48.304;11.902;2023-06-05T03:46:30;10.70;;;8.03;;
8927;SDS011;4499;48.304;11.902;2023-06-05T03:48:58;10.47;;;8.50;;
8927;SDS011;4499;48.304;11.902;2023-06-05T03:51:27;10.00;;;8.43;;
8927;SDS011;4499;48.304;11.902;2023-06-05T03:53:56;9.80;;;8.30;;
8927;SDS011;4499;48.304;11.902;2023-06-05T03:56:24;10.30;;;8.40;;
8927;SDS011;4499;48.304;11.902;2023-06-05T03:58:59;10.47;;;8.50;;
8927;SDS011;4499;48.304;11.902;2023-06-05T04:01:35;10.30;;;8.37;;
8927;SDS011;4499;48.304;11.902;2023-06-05T04:04:04;11.93;;;8.73;;
8927;SDS011;4499;48.304;11.902;2023-06-05T04:06:33;11.53;;;8.27;;
8927;SDS011;4499;48.304;11.902;2023-06-05T04:09:03;11.30;;;8.03;;
8927;SDS011;4499;48.304;11.902;2023-06-05T04:11:39;10.67;;;8.40;;
8927;SDS011;4499;48.304;11.902;2023-06-05T04:14:09;10.03;;;8.53;;
8927;SDS011;4499;48.304;11.902;2023-06-05T04:16:37;8.87;;;7.83;;
8927;SDS011;4499;48.304;11.902;2023-06-05T04:19:09;9.77;;;8.73;;
8927;SDS011;4499;48.304;11.902;2023-06-05T04:21:38;14.03;;;8.70;;
8927;SDS011;4499;48.304;11.902;2023-06-05T04:24:07;9.87;;;8.53;;
8927;SDS011;4499;48.304;11.902;2023-06-05T04:26:38;12.87;;;9.03;;
8927;SDS011;4499;48.304;11.902;2023-06-05T04:29:09;9.30;;;8.33;;
8927;SDS011;4499;48.304;11.902;2023-06-05T04:31:40;9.40;;;8.27;;
8927;SDS011;4499;48.304;11.902;2023-06-05T04:34:09;9.97;;;8.83;;
8927;SDS011;4499;48.304;11.902;2023-06-05T04:36:37;10.97;;;9.17;;
8927;SDS011;4499;48.304;11.902;2023-06-05T04:39:06;12.20;;;8.70;;
8927;SDS011;4499;48.304;11.902;2023-06-05T04:41:40;15.13;;;9.00;;
8927;SDS011;4499;48.304;11.902;2023-06-05T04:44:13;11.50;;;9.17;;
8927;SDS011;4499;48.304;11.902;2023-06-05T04:46:43;12.20;;;9.63;;
8927;SDS011;4499;48.304;11.902;2023-06-05T04:49:11;11.80;;;9.57;;
8927;SDS011;4499;48.304;11.902;2023-06-05T04:51:41;12.87;;;8.80;;
8927;SDS011;4499;48.304;11.902;2023-06-05T04:54:10;11.80;;;9.07;;
8927;SDS011;4499;48.304;11.902;2023-06-05T04:56:38;11.50;;;8.57;;
8927;SDS011;4499;48.304;11.902;2023-06-05T04:59:06;11.63;;;8.73;;
8927;SDS011;4499;48.304;11.902;2023-06-05T05:01:36;13.77;;;9.10;;
8927;SDS011;4499;48.304;11.902;2023-06-05T05:04:07;9.00;;;8.10;;
8927;SDS011;4499;48.304;11.902;2023-06-05T05:06:35;8.83;;;7.90;;
8927;SDS011;4499;48.304;11.902;2023-06-05T05:09:04;14.47;;;8.37;;
8927;SDS011;4499;48.304;11.902;2023-06-05T05:11:33;11.43;;;8.27;;
8927;SDS011;4499;48.304;11.902;2023-06-05T05:14:01;13.03;;;7.93;;
8927;SDS011;4499;48.304;11.902;2023-06-05T05:16:29;11.53;;;7.63;;
8927;SDS011;4499;48.304;11.902;2023-06-05T05:19:03;11.23;;;7.70;;
8927;SDS011;4499;48.304;11.902;2023-06-05T05:21:32;9.73;;;7.00;;
8927;SDS011;4499;48.304;11.902;2023-06-05T05:24:00;9.43;;;7.10;;
8927;SDS011;4499;48.304;11.902;2023-06-05T05:26:28;9.70;;;6.77;;
8927;SDS011;4499;48.304;11.902;2023-06-05T05:28:57;10.13;;;6.90;;
8927;SDS011;4499;48.304;11.902;2023-06-05T05:31:25;10.20;;;6.90;;
8927;SDS011;4499;48.304;11.902;2023-06-05T05:33:54;9.27;;;6.93;;
8927;SDS011;4499;48.304;11.902;2023-06-05T05:36:23;8.83;;;6.53;;
8927;SDS011;4499;48.304;11.902;2023-06-05T05:38:52;7.90;;;6.67;;
8927;SDS011;4499;48.304;11.902;2023-06-05T05:41:21;8.00;;;6.73;;
8927;SDS011;4499;48.304;11.902;2023-06-05T05:43:54;12.70;;;7.67;;
8927;SDS011;4499;48.304;11.902;2023-06-05T05:46:27;10.67;;;7.37;;
8927;SDS011;4499;48.304;11.902;2023-06-05T05:48:55;9.27;;;6.97;;
8927;SDS011;4499;48.304;11.902;2023-06-05T05:51:25;10.23;;;7.20;;
8927;SDS011;4499;48.304;11.902;2023-06-05T05:53:53;8.37;;;6.17;;
8927;SDS011;4499;48.304;11.902;2023-06-05T05:56:21;11.60;;;6.90;;
8927;SDS011;4499;48.304;11.902;2023-06-05T05:58:49;7.90;;;6.57;;
8927;SDS011;4499;48.304;11.902;2023-06-05T06:01:17;9.30;;;6.47;;
8927;SDS011;4499;48.304;11.902;2023-06-05T06:03:46;6.93;;;5.90;;
8927;SDS011;4499;48.304;11.902;2023-06-05T06:06:17;9.27;;;6.47;;
8927;SDS011;4499;48.304;11.902;2023-06-05T06:08:50;10.20;;;6.47;;
8927;SDS011;4499;48.304;11.902;2023-06-05T06:11:19;9.37;;;6.20;;
8927;SDS011;4499;48.304;11.902;2023-06-05T06:13:47;8.07;;;6.20;;
8927;SDS011;4499;48.304;11.902;2023-06-05T06:16:16;7.00;;;5.90;;
8927;SDS011;4499;48.304;11.902;2023-06-05T06:18:44;8.83;;;6.00;;
8927;SDS011;4499;48.304;11.902;2023-06-05T06:21:13;9.23;;;5.43;;
8927;SDS011;4499;48.304;11.902;2023-06-05T06:23:42;8.20;;;5.63;;
8927;SDS011;4499;48.304;11.902;2023-06-05T06:26:17;6.03;;;5.40;;
8927;SDS011;4499;48.304;11.902;2023-06-05T06:28:46;6.43;;;5.03;;
8927;SDS011;4499;48.304;11.902;2023-06-05T06:31:14;8.63;;;5.30;;
8927;SDS011;4499;48.304;11.902;2023-06-05T06:33:43;7.77;;;5.07;;
8927;SDS011;4499;48.304;11.902;2023-06-05T06:36:11;9.03;;;5.33;;
8927;SDS011;4499;48.304;11.902;2023-06-05T06:38:39;10.27;;;5.80;;
8927;SDS011;4499;48.304;11.902;2023-06-05T06:41:08;7.40;;;4.90;;
8927;SDS011;4499;48.304;11.902;2023-06-05T06:43:37;8.70;;;5.50;;
8927;SDS011;4499;48.304;11.902;2023-06-05T06:46:06;7.37;;;5.20;;
8927;SDS011;4499;48.304;11.902;2023-06-05T06:48:34;8.60;;;5.30;;
8927;SDS011;4499;48.304;11.902;2023-06-05T06:51:02;6.63;;;5.33;;
8927;SDS011;4499;48.304;11.902;2023-06-05T06:53:30;8.23;;;5.60;;
8927;SDS011;4499;48.304;11.902;2023-06-05T06:55:58;9.67;;;4.80;;
8927;SDS011;4499;48.304;11.902;2023-06-05T06:58:26;7.17;;;5.10;;
8927;SDS011;4499;48.304;11.902;2023-06-05T07:00:56;8.23;;;4.93;;
8927;SDS011;4499;48.304;11.902;2023-06-05T07:03:24;7.70;;;5.20;;
8927;SDS011;4499;48.304;11.902;2023-06-05T07:05:53;8.97;;;5.30;;
8927;SDS011;4499;48.304;11.902;2023-06-05T07:08:21;6.73;;;5.00;;
8927;SDS011;4499;48.304;11.902;2023-06-05T07:10:49;8.67;;;4.97;;
8927;SDS011;4499;48.304;11.902;2023-06-05T07:13:17;6.27;;;4.83;;
8927;SDS011;4499;48.304;11.902;2023-06-05T07:15:46;7.70;;;5.23;;
8927;SDS011;4499;48.304;11.902;2023-06-05T07:18:16;7.17;;;4.60;;
8927;SDS011;4499;48.304;11.902;2023-06-05T07:20:45;8.20;;;5.23;;
8927;SDS011;4499;48.304;11.902;2023-06-05T07:23:14;9.30;;;4.80;;
8927;SDS011;4499;48.304;11.902;2023-06-05T07:25:46;7.40;;;5.10;;
8927;SDS011;4499;48.304;11.902;2023-06-05T07:28:14;7.53;;;5.00;;
8927;SDS011;4499;48.304;11.902;2023-06-05T07:30:43;5.50;;;4.87;;
8927;SDS011;4499;48.304;11.902;2023-06-05T07:33:11;6.67;;;5.20;;
8927;SDS011;4499;48.304;11.902;2023-06-05T07:35:58;6.03;;;5.03;;
8927;SDS011;4499;48.304;11.902;2023-06-05T07:38:27;6.60;;;4.77;;
8927;SDS011;4499;48.304;11.902;2023-06-05T07:40:56;7.70;;;4.43;;
8927;SDS011;4499;48.304;11.902;2023-06-05T07:43:28;6.20;;;4.28;;
8927;SDS011;4499;48.304;11.902;2023-06-05T07:45:56;5.78;;;4.47;;
8927;SDS011;4499;48.304;11.902;2023-06-05T07:48:24;6.72;;;4.50;;
8927;SDS011;4499;48.304;11.902;2023-06-05T07:50:52;5.38;;;4.10;;
8927;SDS011;4499;48.304;11.902;2023-06-05T07:53:22;5.60;;;4.85;;
8927;SDS011;4499;48.304;11.902;2023-06-05T07:55:50;6.82;;;4.05;;
8927;SDS011;4499;48.304;11.902;2023-06-05T07:58:19;5.20;;;4.15;;
8927;SDS011;4499;48.304;11.902;2023-06-05T08:00:47;7.85;;;4.20;;
8927;SDS011;4499;48.304;11.902;2023-06-05T08:03:16;6.80;;;4.00;;
8927;SDS011;4499;48.304;11.902;2023-06-05T08:05:46;5.82;;;4.18;;
8927;SDS011;4499;48.304;11.902;2023-06-05T08:08:15;6.38;;;4.50;;
8927;SDS011;4499;48.304;11.902;2023-06-05T08:10:45;5.82;;;4.50;;
8927;SDS011;4499;48.304;11.902;2023-06-05T08:13:14;6.35;;;4.45;;
8927;SDS011;4499;48.304;11.902;2023-06-05T08:15:42;5.22;;;4.30;;
8927;SDS011;4499;48.304;11.902;2023-06-05T08:18:11;6.78;;;4.30;;
8927;SDS011;4499;48.304;11.902;2023-06-05T08:20:39;6.05;;;4.18;;
8927;SDS011;4499;48.304;11.902;2023-06-05T08:23:07;6.15;;;4.35;;
8927;SDS011;4499;48.304;11.902;2023-06-05T08:25:35;5.50;;;4.03;;
8927;SDS011;4499;48.304;11.902;2023-06-05T08:28:05;7.13;;;4.68;;
8927;SDS011;4499;48.304;11.902;2023-06-05T08:30:33;7.10;;;4.88;;
8927;SDS011;4499;48.304;11.902;2023-06-05T08:33:01;6.22;;;4.45;;
8927;SDS011;4499;48.304;11.902;2023-06-05T08:35:30;4.75;;;4.25;;
8927;SDS011;4499;48.304;11.902;2023-06-05T08:37:59;6.80;;;4.20;;
8927;SDS011;4499;48.304;11.902;2023-06-05T08:40:28;8.50;;;4.32;;
8927;SDS011;4499;48.304;11.902;2023-06-05T08:42:59;6.35;;;4.75;;
8927;SDS011;4499;48.304;11.902;2023-06-05T08:45:30;5.07;;;4.32;;
8927;SDS011;4499;48.304;11.902;2023-06-05T08:47:59;5.57;;;4.05;;
8927;SDS011;4499;48.304;11.902;2023-06-05T08:50:28;8.52;;;4.60;;
8927;SDS011;4499;48.304;11.902;2023-06-05T08:52:58;5.47;;;4.63;;
8927;SDS011;4499;48.304;11.902;2023-06-05T08:55:27;5.35;;;4.50;;
8927;SDS011;4499;48.304;11.902;2023-06-05T08:57:56;6.53;;;4.60;;
8927;SDS011;4499;48.304;11.902;2023-06-05T09:00:24;6.78;;;4.90;;
8927;SDS011;4499;48.304;11.902;2023-06-05T09:02:54;9.35;;;4.40;;
8927;SDS011;4499;48.304;11.902;2023-06-05T09:05:22;5.35;;;4.07;;
8927;SDS011;4499;48.304;11.902;2023-06-05T09:07:52;5.57;;;4.00;;
8927;SDS011;4499;48.304;11.902;2023-06-05T09:10:21;6.78;;;4.68;;
8927;SDS011;4499;48.304;11.902;2023-06-05T09:12:54;6.72;;;4.13;;
8927;SDS011;4499;48.304;11.902;2023-06-05T09:15:24;6.78;;;4.25;;
8927;SDS011;4499;48.304;11.902;2023-06-05T09:18:04;6.15;;;4.53;;
8927;SDS011;4499;48.304;11.902;2023-06-05T09:20:35;5.50;;;4.18;;
8927;SDS011;4499;48.304;11.902;2023-06-05T09:23:05;7.05;;;4.63;;
8927;SDS011;4499;48.304;11.902;2023-06-05T09:25:52;8.18;;;4.28;;
8927;SDS011;4499;48.304;11.902;2023-06-05T09:28:21;6.45;;;3.80;;
8927;SDS011;4499;48.304;11.902;2023-06-05T09:30:59;5.18;;;3.80;;
8927;SDS011;4499;48.304;11.902;2023-06-05T09:33:30;4.93;;;3.88;;
8927;SDS011;4499;48.304;11.902;2023-06-05T09:36:04;4.85;;;3.67;;
8927;SDS011;4499;48.304;11.902;2023-06-05T09:38:34;6.00;;;3.90;;
8927;SDS011;4499;48.304;11.902;2023-06-05T09:41:04;4.72;;;3.95;;
8927;SDS011;4499;48.304;11.902;2023-06-05T09:43:33;4.70;;;3.75;;
8927;SDS011;4499;48.304;11.902;2023-06-05T09:46:05;6.88;;;4.00;;
8927;SDS011;4499;48.304;11.902;2023-06-05T09:48:36;4.20;;;3.80;;
8927;SDS011;4499;48.304;11.902;2023-06-05T09:51:07;4.72;;;3.72;;
8927;SDS011;4499;48.304;11.902;2023-06-05T09:53:38;5.10;;;4.07;;
8927;SDS011;4499;48.304;11.902;2023-06-05T09:56:11;5.78;;;3.92;;
8927;SDS011;4499;48.304;11.902;2023-06-05T09:58:42;6.70;;;3.90;;
8927;SDS011;4499;48.304;11.902;2023-06-05T10:01:13;5.60;;;3.67;;
8927;SDS011;4499;48.304;11.902;2023-06-05T10:03:47;6.40;;;3.92;;
8927;SDS011;4499;48.304;11.902;2023-06-05T10:06:25;6.90;;;4.05;;
8927;SDS011;4499;48.304;11.902;2023-06-05T10:08:55;6.32;;;3.95;;
8927;SDS011;4499;48.304;11.902;2023-06-05T10:11:24;6.00;;;4.20;;
8927;SDS011;4499;48.304;11.902;2023-06-05T10:13:53;6.75;;;4.00;;
8927;SDS011;4499;48.304;11.902;2023-06-05T10:16:21;4.50;;;3.63;;
8927;SDS011;4499;48.304;11.902;2023-06-05T10:18:54;5.85;;;3.67;;
8927;SDS011;4499;48.304;11.902;2023-06-05T10:21:23;4.25;;;3.15;;
8927;SDS011;4499;48.304;11.902;2023-06-05T10:23:53;5.60;;;3.80;;
8927;SDS011;4499;48.304;11.902;2023-06-05T10:26:28;4.55;;;3.60;;
8927;SDS011;4499;48.304;11.902;2023-06-05T10:29:16;3.80;;;3.33;;
8927;SDS011;4499;48.304;11.902;2023-06-05T10:32:01;5.32;;;3.55;;
8927;SDS011;4499;48.304;11.902;2023-06-05T10:34:39;5.55;;;3.60;;
8927;SDS011;4499;48.304;11.902;2023-06-05T10:37:21;4.03;;;3.47;;
8927;SDS011;4499;48.304;11.902;2023-06-05T10:40:15;6.13;;;3.55;;
8927;SDS011;4499;48.304;11.902;2023-06-05T10:42:44;6.40;;;3.55;;
8927;SDS011;4499;48.304;11.902;2023-06-05T10:45:12;4.15;;;3.67;;
8927;SDS011;4499;48.304;11.902;2023-06-05T10:47:56;6.85;;;3.78;;
8927;SDS011;4499;48.304;11.902;2023-06-05T10:50:27;4.07;;;3.47;;
8927;SDS011;4499;48.304;11.902;2023-06-05T10:52:57;5.38;;;3.33;;
8927;SDS011;4499;48.304;11.902;2023-06-05T10:55:26;5.35;;;3.47;;
8927;SDS011;4499;48.304;11.902;2023-06-05T10:58:09;4.10;;;3.08;;
8927;SDS011;4499;48.304;11.902;2023-06-05T11:03:53;4.68;;;3.35;;
8927;SDS011;4499;48.304;11.902;2023-06-05T11:06:24;5.65;;;3.35;;
8927;SDS011;4499;48.304;11.902;2023-06-05T11:09:06;4.85;;;3.47;;
8927;SDS011;4499;48.304;11.902;2023-06-05T11:14:23;6.10;;;3.50;;
8927;SDS011;4499;48.304;11.902;2023-06-05T11:16:51;6.17;;;3.60;;
8927;SDS011;4499;48.304;11.902;2023-06-05T11:19:35;5.27;;;3.63;;
8927;SDS011;4499;48.304;11.902;2023-06-05T11:22:06;5.17;;;3.70;;
8927;SDS011;4499;48.304;11.902;2023-06-05T11:24:37;4.00;;;3.60;;
8927;SDS011;4499;48.304;11.902;2023-06-05T11:27:06;5.10;;;3.23;;
8927;SDS011;4499;48.304;11.902;2023-06-05T11:29:55;5.27;;;3.40;;
8927;SDS011;4499;48.304;11.902;2023-06-05T11:32:25;3.93;;;3.33;;
8927;SDS011;4499;48.304;11.902;2023-06-05T11:34:53;6.60;;;3.87;;
8927;SDS011;4499;48.304;11.902;2023-06-05T11:37:26;6.07;;;3.63;;
8927;SDS011;4499;48.304;11.902;2023-06-05T11:39:54;4.93;;;3.10;;
8927;SDS011;4499;48.304;11.902;2023-06-05T11:42:23;4.37;;;3.50;;
8927;SDS011;4499;48.304;11.902;2023-06-05T11:44:51;4.93;;;4.00;;
8927;SDS011;4499;48.304;11.902;2023-06-05T11:47:22;7.50;;;3.63;;
8927;SDS011;4499;48.304;11.902;2023-06-05T11:49:51;6.60;;;3.60;;
8927;SDS011;4499;48.304;11.902;2023-06-05T11:52:20;5.93;;;3.40;;
8927;SDS011;4499;48.304;11.902;2023-06-05T11:54:50;5.10;;;3.60;;
8927;SDS011;4499;48.304;11.902;2023-06-05T11:57:38;8.93;;;3.70;;
8927;SDS011;4499;48.304;11.902;2023-06-05T12:00:22;4.63;;;3.60;;
8927;SDS011;4499;48.304;11.902;2023-06-05T12:02:51;5.00;;;3.60;;
8927;SDS011;4499;48.304;11.902;2023-06-05T12:05:20;5.13;;;3.40;;
8927;SDS011;4499;48.304;11.902;2023-06-05T12:07:48;5.63;;;3.37;;
8927;SDS011;4499;48.304;11.902;2023-06-05T12:10:18;6.67;;;3.80;;
8927;SDS011;4499;48.304;11.902;2023-06-05T12:12:50;3.97;;;3.40;;
8927;SDS011;4499;48.304;11.902;2023-06-05T12:15:19;4.90;;;3.60;;
8927;SDS011;4499;48.304;11.902;2023-06-05T12:17:48;5.03;;;3.60;;
8927;SDS011;4499;48.304;11.902;2023-06-05T12:20:17;7.03;;;3.50;;
8927;SDS011;4499;48.304;11.902;2023-06-05T12:22:46;7.40;;;3.47;;
8927;SDS011;4499;48.304;11.902;2023-06-05T12:25:15;4.10;;;3.63;;
8927;SDS011;4499;48.304;11.902;2023-06-05T12:27:48;5.20;;;3.37;;
8927;SDS011;4499;48.304;11.902;2023-06-05T12:30:17;4.13;;;3.20;;
8927;SDS011;4499;48.304;11.902;2023-06-05T12:32:47;5.23;;;3.53;;
8927;SDS011;4499;48.304;11.902;2023-06-05T12:35:17;4.80;;;3.70;;
8927;SDS011;4499;48.304;11.902;2023-06-05T12:37:46;4.83;;;3.50;;
8927;SDS011;4499;48.304;11.902;2023-06-05T12:40:16;4.17;;;3.20;;
8927;SDS011;4499;48.304;11.902;2023-06-05T12:43:02;4.30;;;3.20;;
8927;SDS011;4499;48.304;11.902;2023-06-05T12:45:31;5.23;;;3.43;;
8927;SDS011;4499;48.304;11.902;2023-06-05T12:47:59;4.40;;;3.10;;
8927;SDS011;4499;48.304;11.902;2023-06-05T12:50:28;4.63;;;3.13;;
8927;SDS011;4499;48.304;11.902;2023-06-05T12:52:56;5.10;;;3.10;;
8927;SDS011;4499;48.304;11.902;2023-06-05T12:55:24;3.53;;;3.17;;
8927;SDS011;4499;48.304;11.902;2023-06-05T12:57:53;3.93;;;3.07;;
8927;SDS011;4499;48.304;11.902;2023-06-05T13:00:23;3.97;;;2.80;;
8927;SDS011;4499;48.304;11.902;2023-06-05T13:02:51;4.27;;;2.83;;
8927;SDS011;4499;48.304;11.902;2023-06-05T13:05:19;4.03;;;2.90;;
8927;SDS011;4499;48.304;11.902;2023-06-05T13:07:48;5.03;;;2.93;;
8927;SDS011;4499;48.304;11.902;2023-06-05T13:10:17;4.00;;;2.63;;
8927;SDS011;4499;48.304;11.902;2023-06-05T13:12:45;3.80;;;2.77;;
8927;SDS011;4499;48.304;11.902;2023-06-05T13:15:14;3.13;;;2.60;;
8927;SDS011;4499;48.304;11.902;2023-06-05T13:17:43;3.43;;;2.70;;
8927;SDS011;4499;48.304;11.902;2023-06-05T13:20:14;2.60;;;2.27;;
8927;SDS011;4499;48.304;11.902;2023-06-05T13:22:42;2.57;;;2.30;;
8927;SDS011;4499;48.304;11.902;2023-06-05T13:25:10;2.90;;;2.60;;
8927;SDS011;4499;48.304;11.902;2023-06-05T13:27:39;4.13;;;2.53;;
8927;SDS011;4499;48.304;11.902;2023-06-05T13:30:07;3.23;;;2.30;;
8927;SDS011;4499;48.304;11.902;2023-06-05T13:32:36;4.97;;;2.50;;
8927;SDS011;4499;48.304;11.902;2023-06-05T13:35:07;4.20;;;2.60;;
8927;SDS011;4499;48.304;11.902;2023-06-05T13:37:36;4.07;;;2.60;;
8927;SDS011;4499;48.304;11.902;2023-06-05T13:40:05;3.23;;;2.80;;
8927;SDS011;4499;48.304;11.902;2023-06-05T13:42:36;2.67;;;2.47;;
8927;SDS011;4499;48.304;11.902;2023-06-05T13:45:05;3.50;;;2.63;;
8927;SDS011;4499;48.304;11.902;2023-06-05T13:47:34;4.90;;;2.50;;
8927;SDS011;4499;48.304;11.902;2023-06-05T13:50:03;3.37;;;2.57;;
8927;SDS011;4499;48.304;11.902;2023-06-05T13:52:33;3.73;;;2.53;;
8927;SDS011;4499;48.304;11.902;2023-06-05T13:55:01;3.10;;;2.77;;
8927;SDS011;4499;48.304;11.902;2023-06-05T13:57:30;5.07;;;2.90;;
8927;SDS011;4499;48.304;11.902;2023-06-05T13:59:58;3.57;;;2.70;;
8927;SDS011;4499;48.304;11.902;2023-06-05T14:02:26;2.77;;;2.57;;
8927;SDS011;4499;48.304;11.902;2023-06-05T14:04:55;2.53;;;2.33;;
8927;SDS011;4499;48.304;11.902;2023-06-05T14:07:23;4.23;;;2.73;;
8927;SDS011;4499;48.304;11.902;2023-06-05T14:10:07;2.60;;;2.40;;
8927;SDS011;4499;48.304;11.902;2023-06-05T14:12:36;2.93;;;2.63;;
8927;SDS011;4499;48.304;11.902;2023-06-05T14:15:04;5.43;;;2.57;;
8927;SDS011;4499;48.304;11.902;2023-06-05T14:17:33;4.73;;;2.50;;
8927;SDS011;4499;48.304;11.902;2023-06-05T14:20:01;2.63;;;2.30;;
8927;SDS011;4499;48.304;11.902;2023-06-05T14:22:29;3.00;;;2.70;;
8927;SDS011;4499;48.304;11.902;2023-06-05T14:24:58;2.90;;;2.70;;
8927;SDS011;4499;48.304;11.902;2023-06-05T14:27:27;2.80;;;2.40;;
8927;SDS011;4499;48.304;11.902;2023-06-05T14:29:56;3.03;;;2.53;;
8927;SDS011;4499;48.304;11.902;2023-06-05T14:32:24;4.60;;;2.80;;
8927;SDS011;4499;48.304;11.902;2023-06-05T14:34:54;5.17;;;3.13;;
8927;SDS011;4499;48.304;11.902;2023-06-05T14:37:22;3.17;;;2.87;;
8927;SDS011;4499;48.304;11.902;2023-06-05T14:39:50;3.60;;;2.90;;
8927;SDS011;4499;48.304;11.902;2023-06-05T14:42:18;5.17;;;2.80;;
8927;SDS011;4499;48.304;11.902;2023-06-05T14:44:48;4.60;;;2.90;;
8927;SDS011;4499;48.304;11.902;2023-06-05T14:47:16;3.40;;;3.10;;
8927;SDS011;4499;48.304;11.902;2023-06-05T14:49:44;5.10;;;3.20;;
8927;SDS011;4499;48.304;11.902;2023-06-05T14:52:12;5.13;;;3.23;;
8927;SDS011;4499;48.304;11.902;2023-06-05T14:54:41;3.57;;;3.07;;
8927;SDS011;4499;48.304;11.902;2023-06-05T14:57:29;4.43;;;3.30;;
8927;SDS011;4499;48.304;11.902;2023-06-05T14:59:58;4.00;;;3.00;;
8927;SDS011;4499;48.304;11.902;2023-06-05T15:02:27;4.20;;;3.30;;
8927;SDS011;4499;48.304;11.902;2023-06-05T15:04:55;4.10;;;3.23;;
8927;SDS011;4499;48.304;11.902;2023-06-05T15:07:31;3.67;;;3.17;;
8927;SDS011;4499;48.304;11.902;2023-06-05T15:10:03;3.70;;;3.40;;
8927;SDS011;4499;48.304;11.902;2023-06-05T15:12:31;5.60;;;3.40;;
8927;SDS011;4499;48.304;11.902;2023-06-05T15:15:01;5.77;;;3.30;;
8927;SDS011;4499;48.304;11.902;2023-06-05T15:17:45;5.50;;;3.70;;
8927;SDS011;4499;48.304;11.902;2023-06-05T15:20:14;5.60;;;3.30;;
8927;SDS011;4499;48.304;11.902;2023-06-05T15:22:43;3.63;;;3.27;;
8927;SDS011;4499;48.304;11.902;2023-06-05T15:25:14;4.17;;;3.20;;